sensor_id;sensor_type;location;lat;lon;timestamp;pressure;altitude;pressure_sealevel;temperature;humidity
13478;BME280;12598;62.382;17.344;2024-01-11T00:00:58;101759.75;;;17.66;27.62
13478;BME280;12598;62.382;17.344;2024-01-11T00:02:01;101768.28;;;17.71;27.46
13478;BME280;12598;62.382;17.344;2024-01-11T00:03:03;101765.84;;;17.68;27.60
13478;BME280;12598;62.382;17.344;2024-01-11T00:04:05;101773.63;;;17.71;27.40
13478;BME280;12598;62.382;17.344;2024-01-11T00:05:07;101772.78;;;17.71;27.66
13478;BME280;12598;62.382;17.344;2024-01-11T00:06:09;101768.28;;;17.71;27.95
13478;BME280;12598;62.382;17.344;2024-01-11T00:07:11;101761.47;;;17.67;27.49
13478;BME280;12598;62.382;17.344;2024-01-11T00:08:13;101760.25;;;17.71;27.87
13478;BME280;12598;62.382;17.344;2024-01-11T00:09:14;101770.94;;;17.71;27.92
13478;BME280;12598;62.382;17.344;2024-01-11T00:10:17;101752.72;;;17.65;27.70
13478;BME280;12598;62.382;17.344;2024-01-11T00:11:18;101761.22;;;17.70;27.41
13478;BME280;12598;62.382;17.344;2024-01-11T00:12:20;101762.94;;;17.71;27.52
13478;BME280;12598;62.382;17.344;2024-01-11T00:13:22;101757.72;;;17.70;27.67
13478;BME280;12598;62.382;17.344;2024-01-11T00:14:24;101760.38;;;17.70;27.76
13478;BME280;12598;62.382;17.344;2024-01-11T00:15:26;101765.84;;;17.68;27.62
13478;BME280;12598;62.382;17.344;2024-01-11T00:16:28;101759.53;;;17.69;27.81
13478;BME280;12598;62.382;17.344;2024-01-11T00:17:29;101759.66;;;17.68;27.50
13478;BME280;12598;62.382;17.344;2024-01-11T00:18:31;101770.22;;;17.69;27.29
13478;BME280;12598;62.382;17.344;2024-01-11T00:19:33;101757.09;;;17.66;27.59
13478;BME280;12598;62.382;17.344;2024-01-11T00:20:35;101767.69;;;17.68;27.88
13478;BME280;12598;62.382;17.344;2024-01-11T00:21:37;101762.34;;;17.68;27.44
13478;BME280;12598;62.382;17.344;2024-01-11T00:22:42;101762.19;;;17.69;27.47
13478;BME280;12598;62.382;17.344;2024-01-11T00:23:44;101765.84;;;17.68;27.30
13478;BME280;12598;62.382;17.344;2024-01-11T00:24:46;101768.53;;;17.68;27.36
13478;BME280;12598;62.382;17.344;2024-01-11T00:25:47;101767.69;;;17.68;27.64
13478;BME280;12598;62.382;17.344;2024-01-11T00:26:49;101770.47;;;17.66;27.77
13478;BME280;12598;62.382;17.344;2024-01-11T00:27:51;101748.09;;;17.56;27.32
13478;BME280;12598;62.382;17.344;2024-01-11T00:28:53;101752.72;;;17.54;27.61
13478;BME280;12598;62.382;17.344;2024-01-11T00:29:55;101756.84;;;17.58;27.56
13478;BME280;12598;62.382;17.344;2024-01-11T00:30:57;101765.13;;;17.66;27.47
13478;BME280;12598;62.382;17.344;2024-01-11T00:31:59;101768.75;;;17.65;27.51
13478;BME280;12598;62.382;17.344;2024-01-11T00:33:01;101767.06;;;17.64;27.62
13478;BME280;12598;62.382;17.344;2024-01-11T00:34:04;101764.38;;;17.64;27.24
13478;BME280;12598;62.382;17.344;2024-01-11T00:35:06;101772.41;;;17.64;27.61
13478;BME280;12598;62.382;17.344;2024-01-11T00:36:08;101772.41;;;17.64;27.77
13478;BME280;12598;62.382;17.344;2024-01-11T00:37:09;101759.03;;;17.64;27.71
13478;BME280;12598;62.382;17.344;2024-01-11T00:38:11;101764.38;;;17.64;27.32
13478;BME280;12598;62.382;17.344;2024-01-11T00:39:13;101754.66;;;17.63;27.53
13478;BME280;12598;62.382;17.344;2024-01-11T00:40:15;101768.03;;;17.63;27.38
13478;BME280;12598;62.382;17.344;2024-01-11T00:41:17;101766.56;;;17.59;27.50
13478;BME280;12598;62.382;17.344;2024-01-11T00:42:18;101766.34;;;17.62;27.39
13478;BME280;12598;62.382;17.344;2024-01-11T00:43:20;101757.34;;;17.63;27.84
13478;BME280;12598;62.382;17.344;2024-01-11T00:44:22;101760.97;;;17.62;27.73
13478;BME280;12598;62.382;17.344;2024-01-11T00:45:24;101771.53;;;17.64;27.93
13478;BME280;12598;62.382;17.344;2024-01-11T00:46:26;101776.06;;;17.63;27.74
13478;BME280;12598;62.382;17.344;2024-01-11T00:47:28;101769.00;;;17.62;27.35
13478;BME280;12598;62.382;17.344;2024-01-11T00:48:30;101765.84;;;17.57;27.76
13478;BME280;12598;62.382;17.344;2024-01-11T00:49:31;101771.78;;;17.61;27.74
13478;BME280;12598;62.382;17.344;2024-01-11T00:50:33;101766.34;;;17.62;27.59
13478;BME280;12598;62.382;17.344;2024-01-11T00:51:35;101770.81;;;17.62;27.68
13478;BME280;12598;62.382;17.344;2024-01-11T00:52:37;101771.78;;;17.61;27.76
13478;BME280;12598;62.382;17.344;2024-01-11T00:53:40;101766.34;;;17.62;27.71
13478;BME280;12598;62.382;17.344;2024-01-11T00:54:41;101772.66;;;17.61;27.46
13478;BME280;12598;62.382;17.344;2024-01-11T00:55:43;101773.63;;;17.60;27.54
13478;BME280;12598;62.382;17.344;2024-01-11T00:56:45;101778.25;;;17.58;27.84
13478;BME280;12598;62.382;17.344;2024-01-11T00:57:47;101792.34;;;17.60;27.51
13478;BME280;12598;62.382;17.344;2024-01-11T00:58:49;101794.28;;;17.58;27.36
13478;BME280;12598;62.382;17.344;2024-01-11T00:59:50;101791.63;;;17.58;27.64
13478;BME280;12598;62.382;17.344;2024-01-11T01:00:53;101792.44;;;17.59;27.33
13478;BME280;12598;62.382;17.344;2024-01-11T01:01:55;101788.94;;;17.58;27.83
13478;BME280;12598;62.382;17.344;2024-01-11T01:02:57;101796.97;;;17.58;27.61
13478;BME280;12598;62.382;17.344;2024-01-11T01:03:59;101793.41;;;17.58;27.51
13478;BME280;12598;62.382;17.344;2024-01-11T01:05:01;101794.28;;;17.58;27.54
13478;BME280;12598;62.382;17.344;2024-01-11T01:06:03;101799.63;;;17.58;27.41
13478;BME280;12598;62.382;17.344;2024-01-11T01:07:05;101782.84;;;17.45;27.27
13478;BME280;12598;62.382;17.344;2024-01-11T01:08:07;101804.00;;;17.59;27.28
13478;BME280;12598;62.382;17.344;2024-01-11T01:09:09;101808.63;;;17.57;27.69
13478;BME280;12598;62.382;17.344;2024-01-11T01:10:11;101814.81;;;17.58;27.30
13478;BME280;12598;62.382;17.344;2024-01-11T01:11:13;101825.50;;;17.58;27.53
13478;BME280;12598;62.382;17.344;2024-01-11T01:12:15;101827.34;;;17.57;27.39
13478;BME280;12598;62.382;17.344;2024-01-11T01:13:16;101820.41;;;17.55;27.84
13478;BME280;12598;62.382;17.344;2024-01-11T01:14:18;101831.72;;;17.58;27.20
13478;BME280;12598;62.382;17.344;2024-01-11T01:15:20;101830.03;;;17.57;27.24
13478;BME280;12598;62.382;17.344;2024-01-11T01:16:22;101835.38;;;17.57;27.55
13478;BME280;12598;62.382;17.344;2024-01-11T01:17:24;101838.06;;;17.57;27.23
13478;BME280;12598;62.382;17.344;2024-01-11T01:18:25;101829.16;;;17.57;27.34
13478;BME280;12598;62.382;17.344;2024-01-11T01:19:27;101846.06;;;17.57;27.36
13478;BME280;12598;62.382;17.344;2024-01-11T01:20:29;101846.06;;;17.57;27.49
13478;BME280;12598;62.382;17.344;2024-01-11T01:21:33;101854.09;;;17.57;27.41
13478;BME280;12598;62.382;17.344;2024-01-11T01:22:35;101856.78;;;17.57;27.17
13478;BME280;12598;62.382;17.344;2024-01-11T01:23:37;101851.41;;;17.57;27.11
13478;BME280;12598;62.382;17.344;2024-01-11T01:24:39;101859.44;;;17.57;27.49
13478;BME280;12598;62.382;17.344;2024-01-11T01:25:41;101856.38;;;17.51;27.32
13478;BME280;12598;62.382;17.344;2024-01-11T01:26:43;101867.47;;;17.57;27.71
13478;BME280;12598;62.382;17.344;2024-01-11T01:27:44;101883.50;;;17.57;27.59
13478;BME280;12598;62.382;17.344;2024-01-11T01:28:46;101864.53;;;17.49;27.30
13478;BME280;12598;62.382;17.344;2024-01-11T01:29:48;101886.19;;;17.57;27.67
13478;BME280;12598;62.382;17.344;2024-01-11T01:30:50;101884.34;;;17.58;27.67
13478;BME280;12598;62.382;17.344;2024-01-11T01:31:52;101888.88;;;17.57;27.30
13478;BME280;12598;62.382;17.344;2024-01-11T01:32:54;101877.19;;;17.58;27.43
13478;BME280;12598;62.382;17.344;2024-01-11T01:33:56;101887.41;;;17.53;27.79
13478;BME280;12598;62.382;17.344;2024-01-11T01:34:58;101899.56;;;17.57;27.70
13478;BME280;12598;62.382;17.344;2024-01-11T01:36:00;101899.81;;;17.54;27.62
13478;BME280;12598;62.382;17.344;2024-01-11T01:37:01;101894.22;;;17.57;27.49
13478;BME280;12598;62.382;17.344;2024-01-11T01:38:03;101893.59;;;17.54;27.42
13478;BME280;12598;62.382;17.344;2024-01-11T01:39:05;101894.31;;;17.56;27.68
13478;BME280;12598;62.382;17.344;2024-01-11T01:40:07;101860.22;;;17.36;27.67
13478;BME280;12598;62.382;17.344;2024-01-11T01:41:09;101896.16;;;17.55;27.68
13478;BME280;12598;62.382;17.344;2024-01-11T01:42:11;101908.56;;;17.56;27.66
13478;BME280;12598;62.382;17.344;2024-01-11T01:43:13;101911.34;;;17.55;27.57
13478;BME280;12598;62.382;17.344;2024-01-11T01:44:15;101908.66;;;17.55;27.58
13478;BME280;12598;62.382;17.344;2024-01-11T01:45:16;101914.00;;;17.55;27.33
13478;BME280;12598;62.382;17.344;2024-01-11T01:46:23;101905.25;;;17.53;27.33
13478;BME280;12598;62.382;17.344;2024-01-11T01:47:27;101904.19;;;17.55;27.60
13478;BME280;12598;62.382;17.344;2024-01-11T01:48:29;101886.25;;;17.45;27.68
13478;BME280;12598;62.382;17.344;2024-01-11T01:49:31;101895.75;;;17.49;27.51
13478;BME280;12598;62.382;17.344;2024-01-11T01:50:33;101908.78;;;17.53;27.57
13478;BME280;12598;62.382;17.344;2024-01-11T01:51:35;101888.09;;;17.44;27.52
13478;BME280;12598;62.382;17.344;2024-01-11T01:52:39;101902.72;;;17.51;27.69
13478;BME280;12598;62.382;17.344;2024-01-11T01:53:42;101912.44;;;17.52;27.41
13478;BME280;12598;62.382;17.344;2024-01-11T01:54:44;101897.34;;;17.51;27.45
13478;BME280;12598;62.382;17.344;2024-01-11T01:55:46;101903.78;;;17.49;27.62
13478;BME280;12598;62.382;17.344;2024-01-11T01:56:49;101897.94;;;17.44;27.48
13478;BME280;12598;62.382;17.344;2024-01-11T01:57:53;101902.06;;;17.48;27.77
13478;BME280;12598;62.382;17.344;2024-01-11T01:58:55;101915.34;;;17.49;27.47
13478;BME280;12598;62.382;17.344;2024-01-11T01:59:57;101918.25;;;17.46;27.37
13478;BME280;12598;62.382;17.344;2024-01-11T02:01:00;101913.75;;;17.47;27.25
13478;BME280;12598;62.382;17.344;2024-01-11T02:02:02;101914.72;;;17.46;27.53
13478;BME280;12598;62.382;17.344;2024-01-11T02:03:04;101919.41;;;17.42;27.39
13478;BME280;12598;62.382;17.344;2024-01-11T02:04:06;101918.44;;;17.43;27.73
13478;BME280;12598;62.382;17.344;2024-01-11T02:05:10;101915.03;;;17.41;27.51
13478;BME280;12598;62.382;17.344;2024-01-11T02:06:13;101918.69;;;17.40;27.73
13478;BME280;12598;62.382;17.344;2024-01-11T02:07:16;101917.22;;;17.36;27.55
13478;BME280;12598;62.382;17.344;2024-01-11T02:08:21;101940.72;;;17.44;27.69
13478;BME280;12598;62.382;17.344;2024-01-11T02:09:23;101939.75;;;17.45;27.73
13478;BME280;12598;62.382;17.344;2024-01-11T02:10:25;101935.38;;;17.44;26.99
13478;BME280;12598;62.382;17.344;2024-01-11T02:11:28;101935.47;;;17.42;27.38
13478;BME280;12598;62.382;17.344;2024-01-11T02:12:30;101943.50;;;17.42;27.34
13478;BME280;12598;62.382;17.344;2024-01-11T02:13:32;101932.78;;;17.42;27.09
13478;BME280;12598;62.382;17.344;2024-01-11T02:14:34;101925.38;;;17.35;27.25
13478;BME280;12598;62.382;17.344;2024-01-11T02:15:36;101922.56;;;17.36;27.53
13478;BME280;12598;62.382;17.344;2024-01-11T02:16:38;101934.97;;;17.37;27.65
13478;BME280;12598;62.382;17.344;2024-01-11T02:17:40;101948.09;;;17.40;27.16
13478;BME280;12598;62.382;17.344;2024-01-11T02:18:43;101934.72;;;17.40;27.60
13478;BME280;12598;62.382;17.344;2024-01-11T02:19:46;101940.31;;;17.37;27.58
13478;BME280;12598;62.382;17.344;2024-01-11T02:20:48;101945.41;;;17.40;27.62
13478;BME280;12598;62.382;17.344;2024-01-11T02:21:52;101940.22;;;17.39;27.11
13478;BME280;12598;62.382;17.344;2024-01-11T02:23:01;101941.03;;;17.39;27.13
13478;BME280;12598;62.382;17.344;2024-01-11T02:24:03;101945.41;;;17.40;27.16
13478;BME280;12598;62.382;17.344;2024-01-11T02:25:06;101948.09;;;17.40;27.12
13478;BME280;12598;62.382;17.344;2024-01-11T02:26:07;101937.03;;;17.34;27.17
13478;BME280;12598;62.382;17.344;2024-01-11T02:27:10;101951.88;;;17.38;27.19
13478;BME280;12598;62.382;17.344;2024-01-11T02:28:12;101947.59;;;17.35;27.31
13478;BME280;12598;62.382;17.344;2024-01-11T02:29:14;101946.84;;;17.33;27.60
13478;BME280;12598;62.382;17.344;2024-01-11T02:30:16;101956.34;;;17.37;27.10
13478;BME280;12598;62.382;17.344;2024-01-11T02:31:18;101945.06;;;17.34;27.32
13478;BME280;12598;62.382;17.344;2024-01-11T02:32:20;101934.97;;;17.37;27.06
13478;BME280;12598;62.382;17.344;2024-01-11T02:33:23;101941.19;;;17.38;27.41
13478;BME280;12598;62.382;17.344;2024-01-11T02:34:27;101943.13;;;17.36;27.33
13478;BME280;12598;62.382;17.344;2024-01-11T02:35:30;101940.00;;;17.29;27.24
13478;BME280;12598;62.382;17.344;2024-01-11T02:36:33;101957.22;;;17.38;27.13
13478;BME280;12598;62.382;17.344;2024-01-11T02:37:37;101949.28;;;17.36;27.61
13478;BME280;12598;62.382;17.344;2024-01-11T02:38:41;101953.06;;;17.34;27.49
13478;BME280;12598;62.382;17.344;2024-01-11T02:39:43;101958.19;;;17.37;27.57
13478;BME280;12598;62.382;17.344;2024-01-11T02:40:45;101951.44;;;17.31;27.53
13478;BME280;12598;62.382;17.344;2024-01-11T02:41:49;101961.94;;;17.34;27.57
13478;BME280;12598;62.382;17.344;2024-01-11T02:42:52;101968.16;;;17.35;27.18
13478;BME280;12598;62.382;17.344;2024-01-11T02:43:54;101969.94;;;17.34;27.24
13478;BME280;12598;62.382;17.344;2024-01-11T02:44:56;101958.47;;;17.32;27.53
13478;BME280;12598;62.382;17.344;2024-01-11T02:45:58;101966.44;;;17.34;27.24
13478;BME280;12598;62.382;17.344;2024-01-11T02:47:00;101961.09;;;17.34;27.26
13478;BME280;12598;62.382;17.344;2024-01-11T02:48:03;101970.91;;;17.33;27.16
13478;BME280;12598;62.382;17.344;2024-01-11T02:49:05;101965.56;;;17.33;27.54
13478;BME280;12598;62.382;17.344;2024-01-11T02:50:07;101963.31;;;17.27;27.53
13478;BME280;12598;62.382;17.344;2024-01-11T02:51:09;101969.19;;;17.32;27.33
13478;BME280;12598;62.382;17.344;2024-01-11T02:52:11;101975.41;;;17.33;27.33
13478;BME280;12598;62.382;17.344;2024-01-11T02:53:13;101979.88;;;17.32;27.75
13478;BME280;12598;62.382;17.344;2024-01-11T02:54:15;101980.00;;;17.31;27.62
13478;BME280;12598;62.382;17.344;2024-01-11T02:55:16;101986.19;;;17.31;27.46
13478;BME280;12598;62.382;17.344;2024-01-11T02:56:18;101989.72;;;17.32;27.66
13478;BME280;12598;62.382;17.344;2024-01-11T02:57:20;101985.34;;;17.31;27.54
13478;BME280;12598;62.382;17.344;2024-01-11T02:58:22;101995.16;;;17.30;27.38
13478;BME280;12598;62.382;17.344;2024-01-11T02:59:24;101987.28;;;17.29;27.39
13478;BME280;12598;62.382;17.344;2024-01-11T03:00:25;101991.66;;;17.30;27.46
13478;BME280;12598;62.382;17.344;2024-01-11T03:01:27;101969.56;;;17.15;27.46
13478;BME280;12598;62.382;17.344;2024-01-11T03:02:29;101985.44;;;17.29;27.46
13478;BME280;12598;62.382;17.344;2024-01-11T03:03:31;101990.78;;;17.29;27.62
13478;BME280;12598;62.382;17.344;2024-01-11T03:04:33;101987.16;;;17.30;27.66
13478;BME280;12598;62.382;17.344;2024-01-11T03:05:35;101993.59;;;17.28;27.50
13478;BME280;12598;62.382;17.344;2024-01-11T03:06:37;101997.00;;;17.30;27.88
13478;BME280;12598;62.382;17.344;2024-01-11T03:07:39;101989.22;;;17.27;27.28
13478;BME280;12598;62.382;17.344;2024-01-11T03:08:41;101991.66;;;17.30;27.31
13478;BME280;12598;62.382;17.344;2024-01-11T03:09:43;101999.69;;;17.30;27.15
13478;BME280;12598;62.382;17.344;2024-01-11T03:10:44;102001.47;;;17.29;27.26
13478;BME280;12598;62.382;17.344;2024-01-11T03:11:46;101991.00;;;17.26;27.46
13478;BME280;12598;62.382;17.344;2024-01-11T03:12:48;101992.31;;;17.21;27.41
13478;BME280;12598;62.382;17.344;2024-01-11T03:13:50;102004.16;;;17.29;27.75
13478;BME280;12598;62.382;17.344;2024-01-11T03:14:52;102013.03;;;17.30;27.28
13478;BME280;12598;62.382;17.344;2024-01-11T03:15:54;102011.34;;;17.29;27.70
13478;BME280;12598;62.382;17.344;2024-01-11T03:16:56;102015.72;;;17.30;27.45
13478;BME280;12598;62.382;17.344;2024-01-11T03:17:58;102013.88;;;17.30;27.33
13478;BME280;12598;62.382;17.344;2024-01-11T03:19:00;102019.22;;;17.30;27.23
13478;BME280;12598;62.382;17.344;2024-01-11T03:20:03;102022.88;;;17.29;27.69
13478;BME280;12598;62.382;17.344;2024-01-11T03:21:06;102021.91;;;17.30;27.27
13478;BME280;12598;62.382;17.344;2024-01-11T03:22:08;102027.25;;;17.30;27.64
13478;BME280;12598;62.382;17.344;2024-01-11T03:23:10;102028.22;;;17.29;27.37
13478;BME280;12598;62.382;17.344;2024-01-11T03:24:13;102027.47;;;17.27;27.21
13478;BME280;12598;62.382;17.344;2024-01-11T03:25:15;102034.44;;;17.30;27.67
13478;BME280;12598;62.382;17.344;2024-01-11T03:26:17;102034.44;;;17.30;27.28
13478;BME280;12598;62.382;17.344;2024-01-11T03:27:19;102029.91;;;17.30;27.45
13478;BME280;12598;62.382;17.344;2024-01-11T03:28:21;102024.28;;;17.22;27.32
13478;BME280;12598;62.382;17.344;2024-01-11T03:29:23;102025.25;;;17.21;27.19
13478;BME280;12598;62.382;17.344;2024-01-11T03:30:25;102024.19;;;17.24;27.16
13478;BME280;12598;62.382;17.344;2024-01-11T03:31:27;102047.91;;;17.28;27.26
13478;BME280;12598;62.382;17.344;2024-01-11T03:32:29;102034.75;;;17.25;27.55
13478;BME280;12598;62.382;17.344;2024-01-11T03:33:31;102047.91;;;17.28;27.31
13478;BME280;12598;62.382;17.344;2024-01-11T03:34:33;102049.59;;;17.29;27.46
13478;BME280;12598;62.382;17.344;2024-01-11T03:35:35;102046.09;;;17.29;27.66
13478;BME280;12598;62.382;17.344;2024-01-11T03:36:37;102052.41;;;17.28;27.47
13478;BME280;12598;62.382;17.344;2024-01-11T03:37:39;102060.28;;;17.29;27.45
13478;BME280;12598;62.382;17.344;2024-01-11T03:38:40;102059.56;;;17.27;27.15
13478;BME280;12598;62.382;17.344;2024-01-11T03:39:42;102057.84;;;17.26;27.70
13478;BME280;12598;62.382;17.344;2024-01-11T03:40:44;102055.63;;;17.20;27.50
13478;BME280;12598;62.382;17.344;2024-01-11T03:41:46;102061.63;;;17.24;27.36
13478;BME280;12598;62.382;17.344;2024-01-11T03:42:48;102065.88;;;17.26;27.45
13478;BME280;12598;62.382;17.344;2024-01-11T03:43:50;102067.94;;;17.23;27.46
13478;BME280;12598;62.382;17.344;2024-01-11T03:44:52;102079.22;;;17.26;27.48
13478;BME280;12598;62.382;17.344;2024-01-11T03:45:54;102077.44;;;17.27;27.43
13478;BME280;12598;62.382;17.344;2024-01-11T03:46:55;102088.13;;;17.27;27.61
13478;BME280;12598;62.382;17.344;2024-01-11T03:47:57;102081.91;;;17.26;27.69
13478;BME280;12598;62.382;17.344;2024-01-11T03:48:59;102082.34;;;17.20;27.25
13478;BME280;12598;62.382;17.344;2024-01-11T03:50:01;102082.88;;;17.25;27.48
13478;BME280;12598;62.382;17.344;2024-01-11T03:51:03;102089.19;;;17.24;27.47
13478;BME280;12598;62.382;17.344;2024-01-11T03:52:05;102087.25;;;17.26;27.32
13478;BME280;12598;62.382;17.344;2024-01-11T03:53:08;102088.13;;;17.27;27.28
13478;BME280;12598;62.382;17.344;2024-01-11T03:54:10;102095.28;;;17.26;27.54
13478;BME280;12598;62.382;17.344;2024-01-11T03:55:11;102088.97;;;17.27;27.68
13478;BME280;12598;62.382;17.344;2024-01-11T03:56:13;102099.66;;;17.27;27.53
13478;BME280;12598;62.382;17.344;2024-01-11T03:57:15;102095.19;;;17.28;27.42
13478;BME280;12598;62.382;17.344;2024-01-11T03:58:18;102094.66;;;17.23;27.52
13478;BME280;12598;62.382;17.344;2024-01-11T03:59:20;102096.00;;;17.28;27.24
13478;BME280;12598;62.382;17.344;2024-01-11T04:00:22;102090.78;;;17.27;27.13
13478;BME280;12598;62.382;17.344;2024-01-11T04:01:24;102089.09;;;17.26;27.19
13478;BME280;12598;62.382;17.344;2024-01-11T04:02:26;102089.84;;;17.28;27.38
13478;BME280;12598;62.382;17.344;2024-01-11T04:03:28;102077.66;;;17.24;27.34
13478;BME280;12598;62.382;17.344;2024-01-11T04:04:29;102090.66;;;17.28;27.26
13478;BME280;12598;62.382;17.344;2024-01-11T04:05:31;102100.53;;;17.28;27.11
13478;BME280;12598;62.382;17.344;2024-01-11T04:06:33;102106.72;;;17.28;27.21
13478;BME280;12598;62.382;17.344;2024-01-11T04:07:35;102098.69;;;17.28;27.23
13478;BME280;12598;62.382;17.344;2024-01-11T04:08:37;102108.41;;;17.29;27.61
13478;BME280;12598;62.382;17.344;2024-01-11T04:09:39;102108.41;;;17.29;27.33
13478;BME280;12598;62.382;17.344;2024-01-11T04:10:41;102113.66;;;17.31;27.24
13478;BME280;12598;62.382;17.344;2024-01-11T04:11:43;102111.97;;;17.30;27.33
13478;BME280;12598;62.382;17.344;2024-01-11T04:12:44;102104.78;;;17.30;27.45
13478;BME280;12598;62.382;17.344;2024-01-11T04:13:46;102101.25;;;17.30;27.51
13478;BME280;12598;62.382;17.344;2024-01-11T04:14:48;102099.88;;;17.24;27.26
13478;BME280;12598;62.382;17.344;2024-01-11T04:15:50;102111.84;;;17.31;27.53
13478;BME280;12598;62.382;17.344;2024-01-11T04:16:51;102111.84;;;17.31;27.57
13478;BME280;12598;62.382;17.344;2024-01-11T04:17:54;102111.84;;;17.31;27.56
13478;BME280;12598;62.382;17.344;2024-01-11T04:18:56;102117.19;;;17.31;27.19
13478;BME280;12598;62.382;17.344;2024-01-11T04:19:59;102117.19;;;17.31;27.17
13478;BME280;12598;62.382;17.344;2024-01-11T04:21:01;102118.06;;;17.32;27.28
13478;BME280;12598;62.382;17.344;2024-01-11T04:22:03;102125.19;;;17.31;27.38
13478;BME280;12598;62.382;17.344;2024-01-11T04:23:05;102134.94;;;17.32;27.20
13478;BME280;12598;62.382;17.344;2024-01-11T04:24:07;102121.03;;;17.27;27.35
13478;BME280;12598;62.382;17.344;2024-01-11T04:25:09;102098.84;;;17.14;26.99
13478;BME280;12598;62.382;17.344;2024-01-11T04:26:11;102135.84;;;17.33;27.15
13478;BME280;12598;62.382;17.344;2024-01-11T04:27:13;102129.59;;;17.32;27.37
13478;BME280;12598;62.382;17.344;2024-01-11T04:28:15;102125.53;;;17.27;27.19
13478;BME280;12598;62.382;17.344;2024-01-11T04:29:17;102135.91;;;17.31;27.33
13478;BME280;12598;62.382;17.344;2024-01-11T04:30:19;102118.72;;;17.23;27.06
13478;BME280;12598;62.382;17.344;2024-01-11T04:31:21;102129.59;;;17.32;27.46
13478;BME280;12598;62.382;17.344;2024-01-11T04:32:23;102136.75;;;17.32;27.16
13478;BME280;12598;62.382;17.344;2024-01-11T04:33:25;102115.41;;;17.19;27.04
13478;BME280;12598;62.382;17.344;2024-01-11T04:34:27;102132.25;;;17.32;26.90
13478;BME280;12598;62.382;17.344;2024-01-11T04:35:29;102142.03;;;17.33;27.04
13478;BME280;12598;62.382;17.344;2024-01-11T04:36:31;102146.53;;;17.33;27.02
13478;BME280;12598;62.382;17.344;2024-01-11T04:37:33;102143.28;;;17.28;27.02
13478;BME280;12598;62.382;17.344;2024-01-11T04:38:37;102146.53;;;17.33;26.98
13478;BME280;12598;62.382;17.344;2024-01-11T04:39:41;102150.03;;;17.33;27.19
13478;BME280;12598;62.382;17.344;2024-01-11T04:40:43;102152.72;;;17.33;26.93
13478;BME280;12598;62.382;17.344;2024-01-11T04:41:45;102157.09;;;17.34;27.15
13478;BME280;12598;62.382;17.344;2024-01-11T04:42:47;102153.66;;;17.32;26.89
13478;BME280;12598;62.382;17.344;2024-01-11T04:43:49;102154.41;;;17.34;27.28
13478;BME280;12598;62.382;17.344;2024-01-11T04:44:50;102164.34;;;17.32;26.90
13478;BME280;12598;62.382;17.344;2024-01-11T04:45:52;102155.28;;;17.35;27.29
13478;BME280;12598;62.382;17.344;2024-01-11T04:46:54;102168.66;;;17.35;27.19
13478;BME280;12598;62.382;17.344;2024-01-11T04:47:56;102161.47;;;17.35;27.26
13478;BME280;12598;62.382;17.344;2024-01-11T04:48:58;102170.47;;;17.34;27.21
13478;BME280;12598;62.382;17.344;2024-01-11T04:50:00;102173.31;;;17.31;26.99
13478;BME280;12598;62.382;17.344;2024-01-11T04:51:02;102158.59;;;17.26;27.03
13478;BME280;12598;62.382;17.344;2024-01-11T04:52:04;102181.16;;;17.34;26.63
13478;BME280;12598;62.382;17.344;2024-01-11T04:53:06;102183.84;;;17.34;27.06
13478;BME280;12598;62.382;17.344;2024-01-11T04:54:08;102181.16;;;17.34;26.74
13478;BME280;12598;62.382;17.344;2024-01-11T04:55:11;102177.53;;;17.35;26.92
13478;BME280;12598;62.382;17.344;2024-01-11T04:56:16;102179.44;;;17.33;26.64
13478;BME280;12598;62.382;17.344;2024-01-11T04:57:18;102189.09;;;17.36;26.48
13478;BME280;12598;62.382;17.344;2024-01-11T04:58:20;102187.38;;;17.35;26.43
13478;BME280;12598;62.382;17.344;2024-01-11T04:59:22;102198.91;;;17.35;26.79
13478;BME280;12598;62.382;17.344;2024-01-11T05:00:24;102182.03;;;17.35;26.36
13478;BME280;12598;62.382;17.344;2024-01-11T05:01:25;102183.84;;;17.34;26.17
13478;BME280;12598;62.382;17.344;2024-01-11T05:02:27;102190.16;;;17.33;26.56
13478;BME280;12598;62.382;17.344;2024-01-11T05:03:29;102196.38;;;17.34;26.24
13478;BME280;12598;62.382;17.344;2024-01-11T05:04:31;102188.41;;;17.32;26.19
13478;BME280;12598;62.382;17.344;2024-01-11T05:05:33;102195.50;;;17.33;25.97
13478;BME280;12598;62.382;17.344;2024-01-11T05:06:36;102196.38;;;17.34;26.29
13478;BME280;12598;62.382;17.344;2024-01-11T05:07:38;102171.31;;;17.22;26.08
13478;BME280;12598;62.382;17.344;2024-01-11T05:08:40;102197.19;;;17.34;26.28
13478;BME280;12598;62.382;17.344;2024-01-11T05:09:42;102200.84;;;17.33;26.08
13478;BME280;12598;62.382;17.344;2024-01-11T05:10:43;102198.91;;;17.35;26.57
13478;BME280;12598;62.382;17.344;2024-01-11T05:11:46;102200.00;;;17.33;25.85
13478;BME280;12598;62.382;17.344;2024-01-11T05:12:48;102205.34;;;17.33;26.28
13478;BME280;12598;62.382;17.344;2024-01-11T05:13:50;102212.47;;;17.32;26.28
13478;BME280;12598;62.382;17.344;2024-01-11T05:14:53;102209.72;;;17.34;26.23
13478;BME280;12598;62.382;17.344;2024-01-11T05:15:54;102210.69;;;17.33;26.15
13478;BME280;12598;62.382;17.344;2024-01-11T05:16:56;102215.13;;;17.32;26.21
13478;BME280;12598;62.382;17.344;2024-01-11T05:17:58;102215.13;;;17.32;26.25
13478;BME280;12598;62.382;17.344;2024-01-11T05:19:00;102201.25;;;17.27;25.89
13478;BME280;12598;62.382;17.344;2024-01-11T05:20:02;102215.13;;;17.32;26.14
13478;BME280;12598;62.382;17.344;2024-01-11T05:21:04;102217.81;;;17.32;25.89